Time;durP1;ratioP1;P1;durP2;ratioP2;P2;SDS_P1;SDS_P2;PMS_P1;PMS_P2;Temp;Humidity;BMP_temperature;BMP_pressure;BME280_temperature;BME280_humidity;BME280_pressure;Samples;Min_cycle;Max_cycle;Signal;HPM_P1;HPM_P2
2021/10/03 00:00:36;;;;;;;;;2.50;2.00;;;;;-146.80;100.00;64830.25;5077489;27;45284;-63
2021/10/03 00:03:04;;;;;;;;;5.25;5.25;;;;;-146.80;100.00;64830.25;5077391;27;45354;-62
2021/10/03 00:05:30;;;;;;;;;7.00;5.25;;;;;-146.80;100.00;64830.25;5077912;27;45472;-69
2021/10/03 00:07:58;;;;;;;;;4.00;4.00;;;;;-146.80;100.00;64830.25;5077346;27;46447;-68
2021/10/03 00:10:28;;;;;;;;;6.75;4.25;;;;;-146.80;100.00;64830.25;5077210;27;45350;-65
2021/10/03 00:12:53;;;;;;;;;3.75;3.75;;;;;-146.80;100.00;64830.25;5077450;27;45359;-65
2021/10/03 00:15:21;;;;;;;;;4.75;4.75;;;;;-146.80;100.00;64830.25;5092962;27;45439;-64
2021/10/03 00:17:50;;;;;;;;;6.00;5.00;;;;;-146.80;100.00;64830.25;5092873;27;46520;-68
2021/10/03 00:20:17;;;;;;;;;5.50;5.50;;;;;-146.80;100.00;64830.25;5075513;28;45376;-65
2021/10/03 00:22:43;;;;;;;;;4.00;4.00;;;;;-146.80;100.00;64830.25;5092842;27;45395;-65
2021/10/03 00:25:13;;;;;;;;;6.00;5.25;;;;;-146.80;100.00;64830.25;5077711;27;45421;-66
2021/10/03 00:27:39;;;;;;;;;6.00;5.25;;;;;-146.80;100.00;64830.25;5077229;27;45412;-64
2021/10/03 00:30:05;;;;;;;;;5.00;4.00;;;;;-146.80;100.00;64830.25;5077391;27;45476;-65
2021/10/03 00:32:31;;;;;;;;;6.00;6.00;;;;;-146.80;100.00;64830.25;5077570;27;45363;-63
2021/10/03 00:34:56;;;;;;;;;6.50;4.75;;;;;-146.80;100.00;64830.25;5077520;27;45423;-65
2021/10/03 00:37:21;;;;;;;;;6.00;5.00;;;;;-146.80;100.00;64830.25;5077160;27;46054;-64
2021/10/03 00:39:47;;;;;;;;;6.50;4.75;;;;;-146.80;100.00;64830.25;5077010;27;45455;-65
2021/10/03 00:42:13;;;;;;;;;9.00;6.50;;;;;-146.80;100.00;64830.25;5077305;27;45520;-64
2021/10/03 00:44:38;;;;;;;;;7.75;7.75;;;;;-146.80;100.00;64830.25;5077592;27;45547;-62
2021/10/03 00:47:04;;;;;;;;;6.00;5.00;;;;;-146.80;100.00;64830.25;5076772;27;45748;-65
2021/10/03 00:49:33;;;;;;;;;7.75;6.00;;;;;-146.80;100.00;64830.25;5076976;27;45276;-65
2021/10/03 00:52:00;;;;;;;;;11.50;9.25;;;;;-146.80;100.00;64830.25;5077164;27;45274;-65
2021/10/03 00:54:26;;;;;;;;;5.75;5.00;;;;;-146.80;100.00;64830.25;5092639;27;45450;-65
2021/10/03 00:56:52;;;;;;;;;6.50;6.50;;;;;-146.80;100.00;64830.25;5076821;27;45480;-65
2021/10/03 00:59:17;;;;;;;;;6.00;5.00;;;;;-146.80;100.00;64830.25;5075196;28;45404;-65
2021/10/03 01:01:43;;;;;;;;;6.00;6.00;;;;;-146.80;100.00;64830.25;5077241;27;45425;-69
2021/10/03 01:04:08;;;;;;;;;7.75;7.00;;;;;-146.80;100.00;64830.25;5076844;28;45303;-70
2021/10/03 01:06:35;;;;;;;;;6.00;6.00;;;;;-146.80;100.00;64830.25;5076042;27;45976;-67
2021/10/03 01:09:02;;;;;;;;;8.00;6.25;;;;;-146.80;100.00;64830.25;5076583;28;45251;-69
2021/10/03 01:11:27;;;;;;;;;7.75;7.50;;;;;-146.80;100.00;64830.25;5076449;27;45366;-68
2021/10/03 01:13:53;;;;;;;;;7.00;6.25;;;;;-146.80;100.00;64830.25;5076587;27;45326;-67
2021/10/03 01:16:19;;;;;;;;;7.00;5.75;;;;;-146.80;100.00;64830.25;5074884;28;47083;-66
2021/10/03 01:18:44;;;;;;;;;13.00;9.00;;;;;-146.80;100.00;64830.25;5076816;27;45151;-65
2021/10/03 01:21:10;;;;;;;;;8.00;6.50;;;;;-146.80;100.00;64830.25;5076963;27;45847;-66
2021/10/03 01:23:36;;;;;;;;;10.00;8.00;;;;;-146.80;100.00;64830.25;5076781;28;45479;-65
2021/10/03 01:26:02;;;;;;;;;8.25;8.25;;;;;-146.80;100.00;64830.25;5092088;27;46327;-69
2021/10/03 01:28:28;;;;;;;;;8.25;7.75;;;;;-146.80;100.00;64830.25;5076659;27;45489;-65
2021/10/03 01:30:54;;;;;;;;;9.75;6.75;;;;;-146.80;100.00;64830.25;5076509;27;45482;-65
2021/10/03 01:33:23;;;;;;;;;8.00;7.25;;;;;-146.80;100.00;64830.25;5076591;27;45298;-63
2021/10/03 01:35:49;;;;;;;;;10.00;7.00;;;;;-146.80;100.00;64830.25;5076207;27;45357;-65
2021/10/03 01:38:15;;;;;;;;;8.25;8.25;;;;;-146.80;100.00;64830.25;5076114;28;45485;-65
2021/10/03 01:40:43;;;;;;;;;7.25;7.25;;;;;-146.80;100.00;64830.25;5076479;27;45378;-65
2021/10/03 01:43:08;;;;;;;;;7.00;7.00;;;;;-146.80;100.00;64830.25;5076214;27;45348;-66
2021/10/03 01:45:34;;;;;;;;;9.00;6.50;;;;;-146.80;100.00;64830.25;5075704;27;45531;-65
2021/10/03 01:48:21;;;;;;;;;9.50;7.50;;;;;-146.80;100.00;64830.25;5075940;27;45451;-64
2021/10/03 01:50:46;;;;;;;;;10.00;7.75;;;;;-146.80;100.00;64830.25;5076272;28;45211;-65
2021/10/03 01:53:17;;;;;;;;;6.50;6.25;;;;;-146.80;100.00;64830.25;5076664;27;45283;-67
2021/10/03 01:55:43;;;;;;;;;6.25;5.50;;;;;-146.80;100.00;64830.25;5076216;28;45682;-66
2021/10/03 01:58:09;;;;;;;;;10.75;9.25;;;;;-146.80;100.00;64830.25;5074272;28;45373;-64
2021/10/03 02:00:37;;;;;;;;;11.25;8.00;;;;;-146.80;100.00;64830.25;5074639;28;45362;-70
2021/10/03 02:03:05;;;;;;;;;8.50;6.75;;;;;-146.80;100.00;64830.25;5076085;28;45337;-65
2021/10/03 02:05:36;;;;;;;;;8.50;8.50;;;;;-146.80;100.00;64830.25;5075488;27;46561;-65
2021/10/03 02:08:02;;;;;;;;;7.75;7.75;;;;;-146.80;100.00;64830.25;5075657;27;45457;-66
2021/10/03 02:10:28;;;;;;;;;9.25;7.50;;;;;-146.80;100.00;64830.25;5075703;27;45295;-72
2021/10/03 02:12:54;;;;;;;;;10.00;8.75;;;;;-146.80;100.00;64830.25;5074392;28;45322;-66
2021/10/03 02:15:20;;;;;;;;;7.00;7.00;;;;;-146.80;100.00;64830.25;5075499;28;45540;-67
2021/10/03 02:17:46;;;;;;;;;6.00;6.00;;;;;-146.80;100.00;64830.25;5075858;28;45445;-66
2021/10/03 02:20:17;;;;;;;;;10.50;7.50;;;;;-146.80;100.00;64830.25;5091342;27;45332;-65
2021/10/03 02:22:44;;;;;;;;;7.25;7.25;;;;;-146.80;100.00;64830.25;5074740;28;45544;-68
2021/10/03 02:25:10;;;;;;;;;9.00;7.75;;;;;-146.80;100.00;64830.25;5075422;27;45451;-72
2021/10/03 02:27:36;;;;;;;;;10.00;9.00;;;;;-146.80;100.00;64830.25;5075140;27;45272;-66
2021/10/03 02:30:04;;;;;;;;;7.50;6.00;;;;;-146.80;100.00;64830.25;5075548;27;45316;-68
2021/10/03 02:32:29;;;;;;;;;8.00;6.75;;;;;-146.80;100.00;64830.25;5075482;27;45517;-69
2021/10/03 02:34:55;;;;;;;;;5.75;5.25;;;;;-146.80;100.00;64830.25;5073983;28;46740;-69
2021/10/03 02:37:22;;;;;;;;;6.50;6.50;;;;;-146.80;100.00;64830.25;5075863;28;45370;-68
2021/10/03 02:39:47;;;;;;;;;7.00;7.00;;;;;-146.80;100.00;64830.25;5076058;28;45246;-65
2021/10/03 02:42:12;;;;;;;;;6.00;6.00;;;;;-146.80;100.00;64830.25;5075786;27;45351;-65
2021/10/03 02:44:38;;;;;;;;;9.00;6.25;;;;;-146.80;100.00;64830.25;5075695;27;46108;-65
2021/10/03 02:47:06;;;;;;;;;5.75;5.75;;;;;-146.80;100.00;64830.25;5075815;27;45425;-65
2021/10/03 02:49:32;;;;;;;;;5.50;5.50;;;;;-146.80;100.00;64830.25;5075477;27;45359;-66
2021/10/03 02:51:58;;;;;;;;;6.00;6.00;;;;;-146.80;100.00;64830.25;5075430;27;45485;-66
2021/10/03 02:54:24;;;;;;;;;4.25;4.25;;;;;-146.80;100.00;64830.25;5073843;28;47292;-67
2021/10/03 02:56:49;;;;;;;;;9.25;8.00;;;;;-146.80;100.00;64830.25;5073619;28;45364;-64
2021/10/03 02:59:14;;;;;;;;;9.25;8.00;;;;;-146.80;100.00;64830.25;5075411;27;45250;-67
2021/10/03 03:01:40;;;;;;;;;10.75;8.00;;;;;-146.80;100.00;64830.25;5075342;27;45657;-70
2021/10/03 03:04:05;;;;;;;;;11.25;10.00;;;;;-146.80;100.00;64830.25;5074651;27;45251;-69
2021/10/03 03:06:31;;;;;;;;;6.00;6.00;;;;;-146.80;100.00;64830.25;5074901;27;45370;-64
2021/10/03 03:08:56;;;;;;;;;10.75;8.00;;;;;-146.80;100.00;64830.25;5073703;28;45447;-64
2021/10/03 03:11:21;;;;;;;;;6.50;6.50;;;;;-146.80;100.00;64830.25;5075144;27;45200;-66
2021/10/03 03:13:47;;;;;;;;;10.50;8.25;;;;;-146.80;100.00;64830.25;5074919;27;46630;-71
2021/10/03 03:16:13;;;;;;;;;9.25;8.00;;;;;-146.80;100.00;64830.25;5074495;27;45437;-66
2021/10/03 03:18:41;;;;;;;;;8.75;7.75;;;;;-146.80;100.00;64830.25;5074980;27;45250;-67
2021/10/03 03:21:06;;;;;;;;;7.75;7.00;;;;;-146.80;100.00;64830.25;5075215;27;45363;-68
2021/10/03 03:23:32;;;;;;;;;6.00;5.75;;;;;-146.80;100.00;64830.25;5074607;27;46553;-66
2021/10/03 03:25:57;;;;;;;;;6.00;6.00;;;;;-146.80;100.00;64830.25;5074760;27;45477;-68
2021/10/03 03:28:23;;;;;;;;;8.75;8.00;;;;;-146.80;100.00;64830.25;5074977;27;45701;-66
2021/10/03 03:30:48;;;;;;;;;7.25;6.25;;;;;-146.80;100.00;64830.25;5078624;27;45378;-67
2021/10/03 03:33:15;;;;;;;;;9.00;9.00;;;;;-146.80;100.00;64830.25;5078212;28;46234;-66
2021/10/03 03:35:41;;;;;;;;;8.00;6.00;;;;;-146.80;100.00;64830.25;5076958;28;45637;-66
2021/10/03 03:38:06;;;;;;;;;7.00;6.50;;;;;-146.80;100.00;64830.25;5078122;28;45389;-64
2021/10/03 03:40:31;;;;;;;;;7.25;7.25;;;;;-146.80;100.00;64830.25;5078269;27;45677;-64
2021/10/03 03:42:57;;;;;;;;;7.25;7.00;;;;;-146.80;100.00;64830.25;5077999;27;45909;-64
2021/10/03 03:45:22;;;;;;;;;10.00;9.75;;;;;-146.80;100.00;64830.25;5077889;27;45372;-65
2021/10/03 03:47:48;;;;;;;;;10.25;7.75;;;;;-146.80;100.00;64830.25;5078472;28;45290;-66
2021/10/03 03:50:15;;;;;;;;;7.50;7.50;;;;;-146.80;100.00;64830.25;5078458;27;45381;-66
2021/10/03 03:52:42;;;;;;;;;8.50;7.00;;;;;-146.80;100.00;64830.25;5078052;27;45435;-67
2021/10/03 03:55:08;;;;;;;;;8.50;6.75;;;;;-146.80;100.00;64830.25;5077999;27;45445;-70
2021/10/03 03:57:34;;;;;;;;;10.50;10.00;;;;;-146.80;100.00;64830.25;5078031;27;45455;-65
2021/10/03 03:59:59;;;;;;;;;9.75;7.00;;;;;-146.80;100.00;64830.25;5077971;27;45517;-70
2021/10/03 04:02:25;;;;;;;;;9.00;8.00;;;;;-146.80;100.00;64830.25;5077671;27;45541;-71
2021/10/03 04:04:50;;;;;;;;;9.50;8.50;;;;;-146.80;100.00;64830.25;5077934;27;45239;-68
2021/10/03 04:07:16;;;;;;;;;11.00;9.00;;;;;-146.80;100.00;64830.25;5077843;27;45358;-64
2021/10/03 04:09:41;;;;;;;;;8.00;8.00;;;;;-146.80;100.00;64830.25;5077907;27;45165;-66
2021/10/03 04:12:06;;;;;;;;;9.50;7.75;;;;;-146.80;100.00;64830.25;5077479;27;45355;-64
2021/10/03 04:14:32;;;;;;;;;9.00;7.00;;;;;-146.80;100.00;64830.25;5077526;27;45388;-63
2021/10/03 04:16:57;;;;;;;;;7.00;7.00;;;;;-146.80;100.00;64830.25;5077627;27;45294;-67
2021/10/03 04:19:23;;;;;;;;;9.00;9.00;;;;;-146.80;100.00;64830.25;5078185;27;45629;-66
2021/10/03 04:21:48;;;;;;;;;8.00;8.00;;;;;-146.80;100.00;64830.25;5077404;27;46187;-65
2021/10/03 04:24:14;;;;;;;;;12.75;8.25;;;;;-146.80;100.00;64830.25;5077653;27;45197;-64
2021/10/03 04:26:39;;;;;;;;;23.50;20.50;;;;;-146.80;100.00;64830.25;5077657;27;45351;-65
2021/10/03 04:29:05;;;;;;;;;9.25;9.00;;;;;-146.80;100.00;64830.25;5077659;27;45349;-65
2021/10/03 04:31:30;;;;;;;;;9.00;8.75;;;;;-146.80;100.00;64830.25;5077339;27;45958;-65
2021/10/03 04:33:57;;;;;;;;;10.00;9.00;;;;;-146.80;100.00;64830.25;5077290;27;45347;-64
2021/10/03 04:36:23;;;;;;;;;8.50;8.50;;;;;-146.80;100.00;64830.25;5077632;27;45332;-66
2021/10/03 04:38:49;;;;;;;;;11.25;9.00;;;;;-146.80;100.00;64830.25;5077425;27;45404;-67
2021/10/03 04:41:15;;;;;;;;;10.00;8.75;;;;;-146.80;100.00;64830.25;5075845;27;46397;-63
2021/10/03 04:43:40;;;;;;;;;13.50;10.75;;;;;-146.80;100.00;64830.25;5077021;27;45348;-65
2021/10/03 04:46:05;;;;;;;;;7.75;7.50;;;;;-146.80;100.00;64830.25;5077252;27;45283;-66
2021/10/03 04:48:31;;;;;;;;;9.75;9.75;;;;;-146.80;100.00;64830.25;5077607;27;45157;-68
2021/10/03 04:50:56;;;;;;;;;9.50;9.50;;;;;-146.80;100.00;64830.25;5075801;28;48308;-69
2021/10/03 04:53:22;;;;;;;;;11.25;11.00;;;;;-146.80;100.00;64830.25;5077469;27;45302;-63
2021/10/03 04:55:47;;;;;;;;;12.25;10.75;;;;;-146.80;100.00;64830.25;5077030;27;45370;-65
2021/10/03 04:58:12;;;;;;;;;7.00;7.00;;;;;-146.80;100.00;64830.25;5076986;27;45584;-63
2021/10/03 05:00:38;;;;;;;;;11.00;8.25;;;;;-146.80;100.00;64830.25;5075441;28;48436;-64
2021/10/03 05:03:03;;;;;;;;;10.25;10.25;;;;;-146.80;100.00;64830.25;5076716;28;45271;-63
2021/10/03 05:05:29;;;;;;;;;10.25;9.50;;;;;-146.80;100.00;64830.25;5077072;27;45316;-63
2021/10/03 05:07:54;;;;;;;;;11.50;9.00;;;;;-146.80;100.00;64830.25;5077590;27;45242;-62
2021/10/03 05:10:19;;;;;;;;;11.00;11.00;;;;;-146.80;100.00;64830.25;5076716;27;46522;-67
2021/10/03 05:12:45;;;;;;;;;9.00;9.00;;;;;-146.80;100.00;64830.25;5076852;27;45408;-65
2021/10/03 05:15:10;;;;;;;;;11.25;11.00;;;;;-146.80;100.00;64830.25;5077016;27;45299;-69
2021/10/03 05:17:36;;;;;;;;;13.75;11.00;;;;;-146.80;100.00;64830.25;5076866;27;45472;-66
2021/10/03 05:20:01;;;;;;;;;10.50;10.25;;;;;-146.80;100.00;64830.25;5076518;27;46328;-68
2021/10/03 05:22:27;;;;;;;;;3.25;3.25;;;;;-146.80;100.00;64830.25;5075186;28;45391;-65
2021/10/03 05:24:53;;;;;;;;;11.75;10.00;;;;;-146.80;100.00;64830.25;5076868;27;45703;-65
2021/10/03 05:27:19;;;;;;;;;11.00;10.75;;;;;-146.80;100.00;64830.25;5076519;27;45435;-64
2021/10/03 05:29:45;;;;;;;;;13.00;11.75;;;;;-146.80;100.00;64830.25;5076273;27;45456;-64
2021/10/03 05:32:11;;;;;;;;;13.50;11.25;;;;;-146.80;100.00;64830.25;5076191;27;45323;-68
2021/10/03 05:34:37;;;;;;;;;9.00;9.00;;;;;-146.80;100.00;64830.25;5075145;28;45322;-68
2021/10/03 05:37:03;;;;;;;;;12.75;7.25;;;;;-146.80;100.00;64830.25;5076890;27;45251;-64
2021/10/03 05:39:28;;;;;;;;;6.50;4.00;;;;;-146.80;100.00;64830.25;5076214;27;45316;-68
2021/10/03 05:41:53;;;;;;;;;13.00;7.75;;;;;-146.80;100.00;64830.25;5076557;27;45266;-63
2021/10/03 05:44:19;;;;;;;;;3.50;1.75;;;;;-146.80;100.00;64830.25;5092265;27;45267;-65
2021/10/03 05:46:44;;;;;;;;;2.50;1.00;;;;;-146.80;100.00;64830.25;5076917;27;45573;-63
2021/10/03 05:49:10;;;;;;;;;3.00;0.00;;;;;-146.80;100.00;64830.25;5075109;28;47129;-64
2021/10/03 05:51:35;;;;;;;;;3.75;0.00;;;;;-146.80;100.00;64830.25;5076171;27;45322;-63
2021/10/03 05:54:02;;;;;;;;;0.50;0.00;;;;;-146.80;100.00;64830.25;5092083;27;45461;-63
2021/10/03 05:56:28;;;;;;;;;0.50;0.50;;;;;-146.80;100.00;64830.25;5077065;27;45509;-65
2021/10/03 05:58:53;;;;;;;;;0.25;0.00;;;;;-146.80;100.00;64830.25;5076575;27;46165;-63
2021/10/03 06:01:19;;;;;;;;;1.00;1.00;;;;;-146.80;100.00;64830.25;5074997;28;45785;-63
2021/10/03 06:03:44;;;;;;;;;0.00;0.00;;;;;-146.80;100.00;64830.25;5074852;28;45354;-65
2021/10/03 06:06:09;;;;;;;;;0.00;0.00;;;;;-146.80;100.00;64830.25;5076736;27;45511;-66
2021/10/03 06:08:35;;;;;;;;;1.75;1.00;;;;;-146.80;100.00;64830.25;5076824;27;45397;-65
2021/10/03 06:11:00;;;;;;;;;3.00;2.50;;;;;-146.80;100.00;64830.25;5077788;27;45325;-63
2021/10/03 06:13:25;;;;;;;;;0.25;0.25;;;;;-146.80;100.00;64830.25;5076989;27;45469;-63
2021/10/03 06:15:54;;;;;;;;;0.00;0.00;;;;;-146.80;100.00;64830.25;5076227;27;45555;-62
2021/10/03 06:18:20;;;;;;;;;2.00;0.00;;;;;-146.80;100.00;64830.25;5076004;27;46118;-63
2021/10/03 06:20:45;;;;;;;;;2.00;0.25;;;;;-146.80;100.00;64830.25;5075885;27;45417;-64
2021/10/03 06:23:11;;;;;;;;;0.00;0.00;;;;;-146.80;100.00;64830.25;5075991;27;45389;-63
2021/10/03 06:25:36;;;;;;;;;1.00;1.00;;;;;-146.80;100.00;64830.25;5075970;27;45516;-64
2021/10/03 06:28:02;;;;;;;;;0.00;0.00;;;;;-146.80;100.00;64830.25;5075694;27;46169;-63
2021/10/03 06:30:28;;;;;;;;;0.00;0.00;;;;;-146.80;100.00;64830.25;5076202;27;45344;-63
2021/10/03 06:32:58;;;;;;;;;1.00;0.00;;;;;-146.80;100.00;64830.25;5075927;27;45357;-63
2021/10/03 06:35:23;;;;;;;;;3.75;1.00;;;;;-146.80;100.00;64830.25;5075950;27;45431;-65
2021/10/03 06:37:48;;;;;;;;;1.25;1.25;;;;;-146.80;100.00;64830.25;5075379;28;45441;-64
2021/10/03 06:40:14;;;;;;;;;0.00;0.00;;;;;-146.80;100.00;64830.25;5074390;28;45321;-65
2021/10/03 06:42:39;;;;;;;;;2.00;1.50;;;;;-146.80;100.00;64830.25;5074502;28;45532;-62
2021/10/03 06:45:06;;;;;;;;;3.00;1.25;;;;;-146.80;100.00;64830.25;5075873;27;45492;-64
2021/10/03 06:47:31;;;;;;;;;2.00;1.00;;;;;-146.80;100.00;64830.25;5091570;27;48568;-63
2021/10/03 06:49:57;;;;;;;;;5.00;4.00;;;;;-146.80;100.00;64830.25;5075899;27;45342;-64
2021/10/03 06:52:22;;;;;;;;;2.50;2.00;;;;;-146.80;100.00;64830.25;5075866;27;45352;-61
2021/10/03 06:54:47;;;;;;;;;2.00;2.00;;;;;-146.80;100.00;64830.25;5075918;27;45277;-62
2021/10/03 06:57:13;;;;;;;;;3.00;2.00;;;;;-146.80;100.00;64830.25;5073946;28;47263;-62
2021/10/03 06:59:38;;;;;;;;;2.00;2.00;;;;;-146.80;100.00;64830.25;5091015;27;45367;-65
2021/10/03 07:02:13;;;;;;;;;2.00;2.00;;;;;-146.80;100.00;64830.25;5074077;28;45329;-63
2021/10/03 07:04:38;;;;;;;;;2.50;2.50;;;;;-146.80;100.00;64830.25;5092843;27;45343;-61
2021/10/03 07:07:03;;;;;;;;;1.00;1.00;;;;;-146.80;100.00;64830.25;5078592;27;46136;-62
2021/10/03 07:09:29;;;;;;;;;2.00;2.00;;;;;-146.80;100.00;64830.25;5079206;27;45413;-62
2021/10/03 07:11:54;;;;;;;;;0.25;0.25;;;;;-146.80;100.00;64830.25;5079135;27;45293;-62
2021/10/03 07:14:22;;;;;;;;;1.00;1.00;;;;;-146.80;100.00;64830.25;5078054;28;45532;-64
2021/10/03 07:16:47;;;;;;;;;3.25;2.00;;;;;-146.80;100.00;64830.25;5078641;27;45451;-69
2021/10/03 07:19:12;;;;;;;;;1.75;1.75;;;;;-146.80;100.00;64830.25;5079263;27;45854;-63
2021/10/03 07:21:38;;;;;;;;;0.50;0.50;;;;;-146.80;100.00;64830.25;5079549;27;45757;-66
2021/10/03 07:24:03;;;;;;;;;3.75;3.25;;;;;-146.80;100.00;64830.25;5078971;27;45506;-63
2021/10/03 07:26:29;;;;;;;;;2.75;1.00;;;;;-146.80;100.00;64830.25;5078696;28;45273;-67
2021/10/03 07:28:54;;;;;;;;;3.00;1.00;;;;;-146.80;100.00;64830.25;5078684;27;45360;-65
2021/10/03 07:31:21;;;;;;;;;2.00;1.00;;;;;-146.80;100.00;64830.25;5078710;27;45411;-65
2021/10/03 07:33:47;;;;;;;;;2.00;1.75;;;;;-146.80;100.00;64830.25;5078831;28;45421;-62
2021/10/03 07:36:16;;;;;;;;;2.00;2.00;;;;;-146.80;100.00;64830.25;5078259;28;46560;-63
2021/10/03 07:38:42;;;;;;;;;2.00;1.00;;;;;-146.80;100.00;64830.25;5078107;27;45444;-62
2021/10/03 07:41:07;;;;;;;;;1.00;1.00;;;;;-146.80;100.00;64830.25;5078411;28;45328;-64
2021/10/03 07:43:33;;;;;;;;;3.00;2.00;;;;;-146.80;100.00;64830.25;5077644;28;45492;-66
2021/10/03 07:45:58;;;;;;;;;1.00;1.00;;;;;-146.80;100.00;64830.25;5078186;27;45437;-69
2021/10/03 07:48:24;;;;;;;;;2.75;2.00;;;;;-146.80;100.00;64830.25;5077136;28;45275;-65
2021/10/03 07:50:49;;;;;;;;;1.00;1.00;;;;;-146.80;100.00;64830.25;5078679;27;45200;-62
2021/10/03 07:53:14;;;;;;;;;1.00;1.00;;;;;-146.80;100.00;64830.25;5078414;27;45185;-67
2021/10/03 07:55:40;;;;;;;;;2.00;2.00;;;;;-146.80;100.00;64830.25;5076677;28;46539;-64
2021/10/03 07:58:07;;;;;;;;;2.25;2.25;;;;;-146.80;100.00;64830.25;5077958;27;45430;-64
2021/10/03 08:00:33;;;;;;;;;2.25;2.25;;;;;-146.80;100.00;64830.25;5078389;27;45364;-64
2021/10/03 08:02:59;;;;;;;;;2.25;1.00;;;;;-146.80;100.00;64830.25;5078242;27;45476;-65
2021/10/03 08:05:24;;;;;;;;;5.25;1.00;;;;;-146.80;100.00;64830.25;5076586;28;48435;-66
2021/10/03 08:07:50;;;;;;;;;2.00;2.00;;;;;-146.80;100.00;64830.25;5078119;28;45438;-65
2021/10/03 08:10:15;;;;;;;;;6.75;2.00;;;;;-146.80;100.00;64830.25;5077982;27;45236;-66
2021/10/03 08:12:41;;;;;;;;;5.00;1.50;;;;;-146.80;100.00;64830.25;5078586;27;45358;-63
2021/10/03 08:15:08;;;;;;;;;4.25;2.50;;;;;-146.80;100.00;64830.25;5076255;28;47329;-65
2021/10/03 08:17:33;;;;;;;;;2.25;2.00;;;;;-146.80;100.00;64830.25;5078224;27;45223;-65
2021/10/03 08:19:59;;;;;;;;;5.75;5.25;;;;;-146.80;100.00;64830.25;5078017;27;45247;-63
2021/10/03 08:22:24;;;;;;;;;3.00;3.00;;;;;-146.80;100.00;64830.25;5077915;27;45625;-65
2021/10/03 08:24:49;;;;;;;;;3.50;2.50;;;;;-146.80;100.00;64830.25;5077595;27;45670;-65
2021/10/03 08:27:15;;;;;;;;;2.00;2.00;;;;;-146.80;100.00;64830.25;5077780;27;45235;-69
2021/10/03 08:29:40;;;;;;;;;3.00;3.00;;;;;-146.80;100.00;64830.25;5076277;28;45365;-67
2021/10/03 08:32:06;;;;;;;;;4.00;3.00;;;;;-146.80;100.00;64830.25;5078202;27;45595;-67
2021/10/03 08:34:32;;;;;;;;;2.00;2.00;;;;;-146.80;100.00;64830.25;5077746;28;46500;-69
2021/10/03 08:36:57;;;;;;;;;3.75;3.25;;;;;-146.80;100.00;64830.25;5077626;28;45456;-69
2021/10/03 08:39:23;;;;;;;;;3.50;3.00;;;;;-146.80;100.00;64830.25;5077657;27;45488;-69
2021/10/03 08:41:48;;;;;;;;;4.75;4.00;;;;;-146.80;100.00;64830.25;5077354;27;45369;-68
2021/10/03 08:44:15;;;;;;;;;5.00;3.00;;;;;-146.80;100.00;64830.25;5077249;28;46212;-68
2021/10/03 08:46:40;;;;;;;;;5.25;4.25;;;;;-146.80;100.00;64830.25;5075818;28;45543;-67
2021/10/03 08:49:06;;;;;;;;;6.00;4.00;;;;;-146.80;100.00;64830.25;5077384;28;45361;-68
2021/10/03 08:51:33;;;;;;;;;5.50;4.00;;;;;-146.80;100.00;64830.25;5077439;28;45354;-70
2021/10/03 08:53:58;;;;;;;;;4.50;3.50;;;;;-146.80;100.00;64830.25;5077119;28;45524;-69
2021/10/03 08:56:24;;;;;;;;;4.00;4.00;;;;;-146.80;100.00;64830.25;5075572;28;45303;-68
2021/10/03 08:58:53;;;;;;;;;5.50;5.50;;;;;-146.80;100.00;64830.25;5077179;27;45201;-69
2021/10/03 09:01:20;;;;;;;;;5.00;4.50;;;;;-146.80;100.00;64830.25;5075565;28;45356;-68
2021/10/03 09:03:46;;;;;;;;;4.00;3.75;;;;;-146.80;100.00;64830.25;5076675;27;46029;-70
2021/10/03 09:06:11;;;;;;;;;8.00;5.75;;;;;-146.80;100.00;64830.25;5076702;27;45240;-74
2021/10/03 09:08:47;;;;;;;;;7.75;4.00;;;;;-146.80;100.00;64830.25;5076467;28;45423;-69
2021/10/03 09:11:14;;;;;;;;;2.25;2.25;;;;;-146.80;100.00;64830.25;5075905;28;45271;-73
2021/10/03 09:13:53;;;;;;;;;3.75;3.00;;;;;-146.80;100.00;64830.25;5075530;28;47923;-71
2021/10/03 09:16:24;;;;;;;;;6.50;4.50;;;;;-146.80;100.00;64830.25;5075890;28;45895;-72
2021/10/03 09:18:52;;;;;;;;;4.50;4.25;;;;;-146.80;100.00;64830.25;5077107;27;45400;-70
2021/10/03 09:21:30;;;;;;;;;3.00;3.00;;;;;-146.80;100.00;64830.25;5077141;27;45660;-70
2021/10/03 09:24:02;;;;;;;;;17.00;16.00;;;;;-146.80;100.00;64830.25;5076280;28;46367;-70
2021/10/03 09:26:28;;;;;;;;;5.00;4.50;;;;;-146.80;100.00;64830.25;5076247;28;45327;-70
2021/10/03 09:28:54;;;;;;;;;4.25;4.25;;;;;-146.80;100.00;64830.25;5076324;28;45324;-71
2021/10/03 09:31:21;;;;;;;;;7.00;5.50;;;;;-146.80;100.00;64830.25;5076880;27;45382;-70
2021/10/03 09:33:57;;;;;;;;;5.00;3.00;;;;;-146.80;100.00;64830.25;5076354;27;45372;-70
2021/10/03 09:36:26;;;;;;;;;5.00;3.50;;;;;-146.80;100.00;64830.25;5076306;27;45228;-69
2021/10/03 09:38:59;;;;;;;;;5.75;5.25;;;;;-146.80;100.00;64830.25;5076442;27;45425;-74
2021/10/03 09:41:28;;;;;;;;;3.25;3.25;;;;;-146.80;100.00;64830.25;5076657;27;45331;-69
2021/10/03 09:43:57;;;;;;;;;7.00;2.50;;;;;-146.80;100.00;64830.25;5075624;27;45461;-66
2021/10/03 09:46:34;;;;;;;;;3.75;2.00;;;;;-146.80;100.00;64830.25;5076116;27;45273;-78
2021/10/03 09:49:02;;;;;;;;;9.75;4.25;;;;;-146.80;100.00;64830.25;5076083;28;45380;-71
2021/10/03 09:51:28;;;;;;;;;0.00;0.00;;;;;-146.80;100.00;64830.25;5076459;27;45424;-74
2021/10/03 09:53:54;;;;;;;;;0.00;0.00;;;;;-146.80;100.00;64830.25;5076221;27;46652;-74
2021/10/03 09:56:20;;;;;;;;;0.00;0.00;;;;;-146.80;100.00;64830.25;5092198;27;46067;-76
2021/10/03 09:58:46;;;;;;;;;0.00;0.00;;;;;-146.80;100.00;64830.25;5077068;27;45780;-74
2021/10/03 10:01:13;;;;;;;;;1.00;1.00;;;;;-146.80;100.00;64830.25;5077055;28;45497;-76
2021/10/03 10:03:39;;;;;;;;;1.00;0.00;;;;;-146.80;100.00;64830.25;5075764;28;46756;-75
2021/10/03 10:06:06;;;;;;;;;4.50;4.00;;;;;-146.80;100.00;64830.25;5077402;27;45292;-76
2021/10/03 10:08:38;;;;;;;;;0.00;0.00;;;;;-146.80;100.00;64830.25;5077619;27;45483;-76
2021/10/03 10:11:18;;;;;;;;;0.00;0.00;;;;;-146.80;100.00;64830.25;5076403;28;45375;-75
2021/10/03 10:13:55;;;;;;;;;0.00;0.00;;;;;-146.80;100.00;64830.25;5074044;28;48364;-77
2021/10/03 10:16:42;;;;;;;;;0.00;0.00;;;;;-146.80;100.00;64830.25;5075874;27;45378;-76
2021/10/03 10:19:28;;;;;;;;;0.00;0.00;;;;;-146.80;100.00;64830.25;5076234;27;45369;-75
2021/10/03 10:22:12;;;;;;;;;0.00;0.00;;;;;-146.80;100.00;64830.25;5075935;27;45318;-75
2021/10/03 10:24:46;;;;;;;;;0.00;0.00;;;;;-146.80;100.00;64830.25;5075909;28;45276;-76
2021/10/03 10:27:21;;;;;;;;;0.25;0.25;;;;;-146.80;100.00;64830.25;5091677;27;45232;-74
2021/10/03 10:30:11;;;;;;;;;0.00;0.00;;;;;-146.80;100.00;64830.25;5075738;27;45304;-76
2021/10/03 10:32:55;;;;;;;;;0.25;0.25;;;;;-146.80;100.00;64830.25;5075647;27;45457;-75
2021/10/03 10:35:23;;;;;;;;;1.00;1.00;;;;;-146.80;100.00;64830.25;5075155;28;45403;-75
2021/10/03 10:37:48;;;;;;;;;0.50;0.50;;;;;-146.80;100.00;64830.25;5075319;27;45337;-72
2021/10/03 10:40:26;;;;;;;;;0.00;0.00;;;;;-146.80;100.00;64830.25;5074117;28;45437;-73
2021/10/03 10:43:04;;;;;;;;;2.00;2.00;;;;;-146.80;100.00;64830.25;5091279;27;45460;-73
2021/10/03 10:45:33;;;;;;;;;0.50;0.50;;;;;-146.80;100.00;64830.25;5091039;27;47985;-73
2021/10/03 10:48:11;;;;;;;;;0.00;0.00;;;;;-146.80;100.00;64830.25;5091094;27;45980;-72
2021/10/03 10:50:37;;;;;;;;;1.00;1.00;;;;;-146.80;100.00;64830.25;5075392;27;45227;-74
2021/10/03 10:53:35;;;;;;;;;0.00;0.00;;;;;-146.80;100.00;64830.25;5075024;27;45242;-72
2021/10/03 10:56:18;;;;;;;;;1.00;1.00;;;;;-146.80;100.00;64830.25;5062356;28;47280;-73
2021/10/03 10:58:50;;;;;;;;;0.00;0.00;;;;;-146.80;100.00;64830.25;5073947;28;45814;-71
2021/10/03 11:01:17;;;;;;;;;0.00;0.00;;;;;-146.80;100.00;64830.25;5090943;27;45639;-73
2021/10/03 11:03:43;;;;;;;;;1.75;0.75;;;;;-146.80;100.00;64830.25;5074257;28;45602;-73
2021/10/03 11:06:09;;;;;;;;;0.50;0.50;;;;;-146.80;100.00;64830.25;5075016;28;45515;-72